Main page
METAR-TAF:

METAR-TAF

Airports :

RAF Cranwell

Cranwell, England

latitude: 53-02N, longitude: 000-30W, elevation: 67 m

Current weather observation

The report was made 35 minutes ago, at 02:20 UTC
Wind 9 kt from the South
Temperature 9°C
Humidity 93%
Pressure 1015 hPa
Visibility 10 km or more
light drizzle,

METAR: EGYD 210220Z AUTO 19009KT 9999 -DZ OVC011/// 09/08 Q1015

Time: 02:55 (02:55 UTC)

Forecast

The report was made 13 hours and 7 minutes ago, at 13:48 UTC
Forecast valid from 20 at 15 UTC to 20 at 19 UTC
Wind 18 kt from the Southwest with gusts up to 28 kt
Visibility 10 km or more
Few clouds at a height of 2000 ft
Probability 40% :
Temporary
from 20 at 15 UTC to 20 at 19 UTC
Scattered clouds at a height of 2000 ft
Probability 30% :
Temporary
from 20 at 17 UTC to 20 at 19 UTC
Visibility: 6000 m
Scattered clouds at a height of 1000 ft
rain,

TAF: EGYD 201348Z 2015/2019 23018G28KT 9999 FEW020 PROB40 TEMPO 2015/2019 SCT020 PROB30 TEMPO 2017/2019 6000 RA SCT010

Weather observations and forecasts of more than 4000 airports (METAR and TAF reports).

The available stations are represented by yellow and red dots on the map.

Hover mouse over dot to see the name of the station.

Then click to see weather observations and forecasts.

To change the map : click on the green buttons with a black cross to zoom in, on the green button with a dash to zoom out, or on the green arrows for adjacent maps.


METAR-TAF: